sensor_id;sensor_type;location;lat;lon;timestamp;P1;durP1;ratioP1;P2;durP2;ratioP2
72464;SDS011;60471;52.150;4.508;2023-07-29T00:01:35;10.13;;;1.77;;
72464;SDS011;60471;52.150;4.508;2023-07-29T00:04:02;11.70;;;2.03;;
72464;SDS011;60471;52.150;4.508;2023-07-29T00:06:29;8.02;;;2.08;;
72464;SDS011;60471;52.150;4.508;2023-07-29T00:08:55;9.40;;;1.92;;
72464;SDS011;60471;52.150;4.508;2023-07-29T00:11:21;10.88;;;2.20;;
72464;SDS011;60471;52.150;4.508;2023-07-29T00:13:47;11.57;;;2.33;;
72464;SDS011;60471;52.150;4.508;2023-07-29T00:16:16;7.82;;;1.90;;
72464;SDS011;60471;52.150;4.508;2023-07-29T00:18:43;10.60;;;2.50;;
72464;SDS011;60471;52.150;4.508;2023-07-29T00:21:10;8.70;;;2.13;;
72464;SDS011;60471;52.150;4.508;2023-07-29T00:23:36;10.75;;;2.38;;
72464;SDS011;60471;52.150;4.508;2023-07-29T00:26:02;8.05;;;1.80;;
72464;SDS011;60471;52.150;4.508;2023-07-29T00:28:29;9.43;;;2.22;;
72464;SDS011;60471;52.150;4.508;2023-07-29T00:30:55;16.42;;;2.63;;
72464;SDS011;60471;52.150;4.508;2023-07-29T00:33:21;11.77;;;2.22;;
72464;SDS011;60471;52.150;4.508;2023-07-29T00:35:47;7.95;;;2.22;;
72464;SDS011;60471;52.150;4.508;2023-07-29T00:38:14;10.95;;;2.53;;
72464;SDS011;60471;52.150;4.508;2023-07-29T00:40:40;8.65;;;2.20;;
72464;SDS011;60471;52.150;4.508;2023-07-29T00:43:06;9.20;;;2.42;;
72464;SDS011;60471;52.150;4.508;2023-07-29T00:45:32;9.52;;;2.00;;
72464;SDS011;60471;52.150;4.508;2023-07-29T00:48:01;9.90;;;2.00;;
72464;SDS011;60471;52.150;4.508;2023-07-29T00:50:29;9.85;;;2.10;;
72464;SDS011;60471;52.150;4.508;2023-07-29T00:52:58;8.93;;;1.85;;
72464;SDS011;60471;52.150;4.508;2023-07-29T00:55:24;7.47;;;2.20;;
72464;SDS011;60471;52.150;4.508;2023-07-29T00:57:51;7.72;;;2.00;;
72464;SDS011;60471;52.150;4.508;2023-07-29T01:00:20;6.90;;;2.08;;
72464;SDS011;60471;52.150;4.508;2023-07-29T01:02:47;11.38;;;2.00;;
72464;SDS011;60471;52.150;4.508;2023-07-29T01:05:14;7.75;;;1.70;;
72464;SDS011;60471;52.150;4.508;2023-07-29T01:07:58;8.65;;;2.10;;
72464;SDS011;60471;52.150;4.508;2023-07-29T01:13:11;6.38;;;1.90;;
72464;SDS011;60471;52.150;4.508;2023-07-29T01:15:55;9.98;;;2.42;;
72464;SDS011;60471;52.150;4.508;2023-07-29T01:18:28;8.13;;;1.98;;
72464;SDS011;60471;52.150;4.508;2023-07-29T01:20:58;7.47;;;2.30;;
72464;SDS011;60471;52.150;4.508;2023-07-29T01:23:29;8.82;;;2.30;;
72464;SDS011;60471;52.150;4.508;2023-07-29T01:25:59;8.75;;;2.38;;
72464;SDS011;60471;52.150;4.508;2023-07-29T01:28:26;10.98;;;2.80;;
72464;SDS011;60471;52.150;4.508;2023-07-29T01:31:01;7.50;;;2.28;;
72464;SDS011;60471;52.150;4.508;2023-07-29T01:33:53;7.55;;;2.35;;
72464;SDS011;60471;52.150;4.508;2023-07-29T01:36:28;8.65;;;2.58;;
72464;SDS011;60471;52.150;4.508;2023-07-29T01:38:58;9.02;;;2.63;;
72464;SDS011;60471;52.150;4.508;2023-07-29T01:41:28;12.88;;;2.50;;
72464;SDS011;60471;52.150;4.508;2023-07-29T01:43:55;10.32;;;2.70;;
72464;SDS011;60471;52.150;4.508;2023-07-29T01:46:23;7.75;;;2.47;;
72464;SDS011;60471;52.150;4.508;2023-07-29T01:48:49;9.88;;;3.00;;
72464;SDS011;60471;52.150;4.508;2023-07-29T01:51:15;10.40;;;3.00;;
72464;SDS011;60471;52.150;4.508;2023-07-29T01:53:41;10.40;;;3.17;;
72464;SDS011;60471;52.150;4.508;2023-07-29T01:56:08;11.00;;;2.92;;
72464;SDS011;60471;52.150;4.508;2023-07-29T01:58:34;10.32;;;2.70;;
72464;SDS011;60471;52.150;4.508;2023-07-29T02:01:00;9.60;;;2.72;;
72464;SDS011;60471;52.150;4.508;2023-07-29T02:03:26;12.10;;;3.10;;
72464;SDS011;60471;52.150;4.508;2023-07-29T02:05:53;12.40;;;3.03;;
72464;SDS011;60471;52.150;4.508;2023-07-29T02:08:20;11.15;;;3.15;;
72464;SDS011;60471;52.150;4.508;2023-07-29T02:10:46;9.25;;;2.83;;
72464;SDS011;60471;52.150;4.508;2023-07-29T02:13:14;8.50;;;3.08;;
72464;SDS011;60471;52.150;4.508;2023-07-29T02:15:40;11.52;;;3.17;;
72464;SDS011;60471;52.150;4.508;2023-07-29T02:18:06;10.75;;;3.67;;
72464;SDS011;60471;52.150;4.508;2023-07-29T02:20:33;13.48;;;3.60;;
72464;SDS011;60471;52.150;4.508;2023-07-29T02:22:59;16.83;;;3.70;;
72464;SDS011;60471;52.150;4.508;2023-07-29T02:25:25;12.35;;;3.65;;
72464;SDS011;60471;52.150;4.508;2023-07-29T02:27:52;14.95;;;3.78;;
72464;SDS011;60471;52.150;4.508;2023-07-29T02:30:18;10.07;;;3.60;;
72464;SDS011;60471;52.150;4.508;2023-07-29T02:32:44;11.13;;;3.33;;
72464;SDS011;60471;52.150;4.508;2023-07-29T02:35:11;9.48;;;3.05;;
72464;SDS011;60471;52.150;4.508;2023-07-29T02:37:38;9.65;;;3.25;;
72464;SDS011;60471;52.150;4.508;2023-07-29T02:40:04;10.68;;;3.20;;
72464;SDS011;60471;52.150;4.508;2023-07-29T02:42:31;13.27;;;3.55;;
72464;SDS011;60471;52.150;4.508;2023-07-29T02:44:58;11.75;;;3.42;;
72464;SDS011;60471;52.150;4.508;2023-07-29T02:47:24;9.57;;;3.17;;
72464;SDS011;60471;52.150;4.508;2023-07-29T02:49:50;11.60;;;3.47;;
72464;SDS011;60471;52.150;4.508;2023-07-29T02:52:17;18.83;;;3.70;;
72464;SDS011;60471;52.150;4.508;2023-07-29T02:54:43;13.23;;;3.70;;
72464;SDS011;60471;52.150;4.508;2023-07-29T02:57:09;14.00;;;3.78;;
72464;SDS011;60471;52.150;4.508;2023-07-29T02:59:35;10.90;;;3.75;;
72464;SDS011;60471;52.150;4.508;2023-07-29T03:02:01;13.07;;;4.32;;
72464;SDS011;60471;52.150;4.508;2023-07-29T03:04:28;10.85;;;3.90;;
72464;SDS011;60471;52.150;4.508;2023-07-29T03:06:54;14.88;;;3.55;;
72464;SDS011;60471;52.150;4.508;2023-07-29T03:09:20;8.77;;;3.65;;
72464;SDS011;60471;52.150;4.508;2023-07-29T03:11:46;12.25;;;3.88;;
72464;SDS011;60471;52.150;4.508;2023-07-29T03:14:12;15.02;;;4.03;;
72464;SDS011;60471;52.150;4.508;2023-07-29T03:16:39;13.93;;;3.95;;
72464;SDS011;60471;52.150;4.508;2023-07-29T03:19:05;11.63;;;3.90;;
72464;SDS011;60471;52.150;4.508;2023-07-29T03:21:34;11.02;;;3.67;;
72464;SDS011;60471;52.150;4.508;2023-07-29T03:24:00;11.13;;;4.05;;
72464;SDS011;60471;52.150;4.508;2023-07-29T03:26:27;12.10;;;4.13;;
72464;SDS011;60471;52.150;4.508;2023-07-29T03:28:53;11.15;;;4.00;;
72464;SDS011;60471;52.150;4.508;2023-07-29T03:31:19;11.70;;;3.90;;
72464;SDS011;60471;52.150;4.508;2023-07-29T03:33:45;11.15;;;4.20;;
72464;SDS011;60471;52.150;4.508;2023-07-29T03:36:12;17.52;;;4.60;;
72464;SDS011;60471;52.150;4.508;2023-07-29T03:38:38;12.35;;;4.53;;
72464;SDS011;60471;52.150;4.508;2023-07-29T03:41:07;13.05;;;4.53;;
72464;SDS011;60471;52.150;4.508;2023-07-29T03:43:34;11.35;;;3.95;;
72464;SDS011;60471;52.150;4.508;2023-07-29T03:46:00;13.35;;;4.40;;
72464;SDS011;60471;52.150;4.508;2023-07-29T03:48:27;12.38;;;3.80;;
72464;SDS011;60471;52.150;4.508;2023-07-29T03:50:53;12.25;;;3.92;;
72464;SDS011;60471;52.150;4.508;2023-07-29T03:53:20;17.98;;;4.15;;
72464;SDS011;60471;52.150;4.508;2023-07-29T03:55:46;13.98;;;3.75;;
72464;SDS011;60471;52.150;4.508;2023-07-29T03:58:12;9.73;;;3.75;;
72464;SDS011;60471;52.150;4.508;2023-07-29T04:00:39;12.07;;;4.00;;
72464;SDS011;60471;52.150;4.508;2023-07-29T04:03:05;9.80;;;3.97;;
72464;SDS011;60471;52.150;4.508;2023-07-29T04:05:31;12.88;;;3.97;;
72464;SDS011;60471;52.150;4.508;2023-07-29T04:07:58;12.13;;;4.28;;
72464;SDS011;60471;52.150;4.508;2023-07-29T04:10:24;13.00;;;4.15;;
72464;SDS011;60471;52.150;4.508;2023-07-29T04:12:54;13.15;;;4.00;;
72464;SDS011;60471;52.150;4.508;2023-07-29T04:15:20;12.10;;;3.85;;
72464;SDS011;60471;52.150;4.508;2023-07-29T04:17:46;14.05;;;4.13;;
72464;SDS011;60471;52.150;4.508;2023-07-29T04:20:12;14.55;;;3.58;;
72464;SDS011;60471;52.150;4.508;2023-07-29T04:22:44;11.73;;;3.70;;
72464;SDS011;60471;52.150;4.508;2023-07-29T04:25:10;13.98;;;4.13;;
72464;SDS011;60471;52.150;4.508;2023-07-29T04:27:36;14.35;;;3.85;;
72464;SDS011;60471;52.150;4.508;2023-07-29T04:30:02;15.70;;;4.50;;
72464;SDS011;60471;52.150;4.508;2023-07-29T04:32:29;12.23;;;4.28;;
72464;SDS011;60471;52.150;4.508;2023-07-29T04:34:55;12.48;;;3.70;;
72464;SDS011;60471;52.150;4.508;2023-07-29T04:37:22;14.32;;;4.40;;
72464;SDS011;60471;52.150;4.508;2023-07-29T04:39:48;12.43;;;3.85;;
72464;SDS011;60471;52.150;4.508;2023-07-29T04:42:14;13.77;;;5.03;;
72464;SDS011;60471;52.150;4.508;2023-07-29T04:44:41;11.55;;;4.43;;
72464;SDS011;60471;52.150;4.508;2023-07-29T04:47:10;16.55;;;4.50;;
72464;SDS011;60471;52.150;4.508;2023-07-29T04:49:36;12.70;;;4.50;;
72464;SDS011;60471;52.150;4.508;2023-07-29T04:52:02;19.40;;;5.38;;
72464;SDS011;60471;52.150;4.508;2023-07-29T04:54:29;15.80;;;4.97;;
72464;SDS011;60471;52.150;4.508;2023-07-29T04:56:55;13.38;;;5.20;;
72464;SDS011;60471;52.150;4.508;2023-07-29T04:59:21;14.15;;;4.82;;
72464;SDS011;60471;52.150;4.508;2023-07-29T05:01:48;16.60;;;5.13;;
72464;SDS011;60471;52.150;4.508;2023-07-29T05:04:14;18.10;;;5.45;;
72464;SDS011;60471;52.150;4.508;2023-07-29T05:06:41;16.42;;;5.20;;
72464;SDS011;60471;52.150;4.508;2023-07-29T05:09:14;15.32;;;5.13;;
72464;SDS011;60471;52.150;4.508;2023-07-29T05:11:42;13.23;;;5.93;;
72464;SDS011;60471;52.150;4.508;2023-07-29T05:14:12;16.60;;;5.75;;
72464;SDS011;60471;52.150;4.508;2023-07-29T05:16:40;13.80;;;5.40;;
72464;SDS011;60471;52.150;4.508;2023-07-29T05:19:06;14.52;;;5.40;;
72464;SDS011;60471;52.150;4.508;2023-07-29T05:21:36;16.17;;;5.20;;
72464;SDS011;60471;52.150;4.508;2023-07-29T05:24:03;15.45;;;5.00;;
72464;SDS011;60471;52.150;4.508;2023-07-29T05:26:30;13.68;;;5.80;;
72464;SDS011;60471;52.150;4.508;2023-07-29T05:28:56;14.48;;;5.10;;
72464;SDS011;60471;52.150;4.508;2023-07-29T05:31:22;13.27;;;5.45;;
72464;SDS011;60471;52.150;4.508;2023-07-29T05:33:49;14.88;;;5.30;;
72464;SDS011;60471;52.150;4.508;2023-07-29T05:36:15;15.35;;;5.53;;
72464;SDS011;60471;52.150;4.508;2023-07-29T05:38:41;14.98;;;4.97;;
72464;SDS011;60471;52.150;4.508;2023-07-29T05:41:07;13.27;;;5.50;;
72464;SDS011;60471;52.150;4.508;2023-07-29T05:43:34;14.35;;;5.18;;
72464;SDS011;60471;52.150;4.508;2023-07-29T05:46:00;19.35;;;5.22;;
72464;SDS011;60471;52.150;4.508;2023-07-29T05:48:27;14.55;;;5.75;;
72464;SDS011;60471;52.150;4.508;2023-07-29T05:50:53;15.52;;;5.28;;
72464;SDS011;60471;52.150;4.508;2023-07-29T05:53:19;13.55;;;4.75;;
72464;SDS011;60471;52.150;4.508;2023-07-29T05:55:45;16.38;;;4.88;;
72464;SDS011;60471;52.150;4.508;2023-07-29T05:58:11;15.60;;;5.35;;
72464;SDS011;60471;52.150;4.508;2023-07-29T06:00:38;14.68;;;5.80;;
72464;SDS011;60471;52.150;4.508;2023-07-29T06:03:04;14.77;;;4.90;;
72464;SDS011;60471;52.150;4.508;2023-07-29T06:05:30;19.02;;;5.35;;
72464;SDS011;60471;52.150;4.508;2023-07-29T06:07:57;17.90;;;5.43;;
72464;SDS011;60471;52.150;4.508;2023-07-29T06:10:23;14.35;;;4.82;;
72464;SDS011;60471;52.150;4.508;2023-07-29T06:12:49;15.52;;;4.60;;
72464;SDS011;60471;52.150;4.508;2023-07-29T06:15:15;13.10;;;4.70;;
72464;SDS011;60471;52.150;4.508;2023-07-29T06:17:42;14.30;;;4.43;;
72464;SDS011;60471;52.150;4.508;2023-07-29T06:20:08;13.75;;;5.07;;
72464;SDS011;60471;52.150;4.508;2023-07-29T06:22:35;15.27;;;4.43;;
72464;SDS011;60471;52.150;4.508;2023-07-29T06:25:01;13.98;;;3.38;;
72464;SDS011;60471;52.150;4.508;2023-07-29T06:27:27;10.80;;;3.00;;
72464;SDS011;60471;52.150;4.508;2023-07-29T06:29:53;18.83;;;3.80;;
72464;SDS011;60471;52.150;4.508;2023-07-29T06:32:20;12.80;;;3.42;;
72464;SDS011;60471;52.150;4.508;2023-07-29T06:34:46;13.65;;;2.92;;
72464;SDS011;60471;52.150;4.508;2023-07-29T06:37:12;10.98;;;3.00;;
72464;SDS011;60471;52.150;4.508;2023-07-29T06:39:38;12.65;;;2.85;;
72464;SDS011;60471;52.150;4.508;2023-07-29T06:42:05;12.35;;;2.72;;
72464;SDS011;60471;52.150;4.508;2023-07-29T06:44:32;12.02;;;2.55;;
72464;SDS011;60471;52.150;4.508;2023-07-29T06:46:58;12.32;;;2.38;;
72464;SDS011;60471;52.150;4.508;2023-07-29T06:49:25;12.55;;;1.95;;
72464;SDS011;60471;52.150;4.508;2023-07-29T06:51:51;11.38;;;2.20;;
72464;SDS011;60471;52.150;4.508;2023-07-29T06:54:17;11.05;;;2.40;;
72464;SDS011;60471;52.150;4.508;2023-07-29T06:56:43;10.07;;;2.10;;
72464;SDS011;60471;52.150;4.508;2023-07-29T06:59:09;11.38;;;1.83;;
72464;SDS011;60471;52.150;4.508;2023-07-29T07:01:36;11.55;;;2.40;;
72464;SDS011;60471;52.150;4.508;2023-07-29T07:04:02;11.43;;;2.20;;
72464;SDS011;60471;52.150;4.508;2023-07-29T07:06:28;10.18;;;2.00;;
72464;SDS011;60471;52.150;4.508;2023-07-29T07:08:54;12.27;;;2.33;;
72464;SDS011;60471;52.150;4.508;2023-07-29T07:11:21;15.63;;;2.17;;
72464;SDS011;60471;52.150;4.508;2023-07-29T07:13:47;10.10;;;2.38;;
72464;SDS011;60471;52.150;4.508;2023-07-29T07:16:13;11.75;;;1.98;;
72464;SDS011;60471;52.150;4.508;2023-07-29T07:18:39;11.35;;;2.00;;
72464;SDS011;60471;52.150;4.508;2023-07-29T07:21:06;12.48;;;2.20;;
72464;SDS011;60471;52.150;4.508;2023-07-29T07:23:32;12.00;;;2.05;;
72464;SDS011;60471;52.150;4.508;2023-07-29T07:25:58;10.43;;;2.00;;
72464;SDS011;60471;52.150;4.508;2023-07-29T07:28:24;10.98;;;2.35;;
72464;SDS011;60471;52.150;4.508;2023-07-29T07:30:51;7.95;;;1.95;;
72464;SDS011;60471;52.150;4.508;2023-07-29T07:33:17;10.48;;;2.08;;
72464;SDS011;60471;52.150;4.508;2023-07-29T07:35:43;9.68;;;2.10;;
72464;SDS011;60471;52.150;4.508;2023-07-29T07:38:10;8.43;;;2.20;;
72464;SDS011;60471;52.150;4.508;2023-07-29T07:40:36;9.80;;;2.10;;
72464;SDS011;60471;52.150;4.508;2023-07-29T07:43:02;8.95;;;2.13;;
72464;SDS011;60471;52.150;4.508;2023-07-29T07:45:29;7.22;;;1.80;;
72464;SDS011;60471;52.150;4.508;2023-07-29T07:47:56;9.25;;;2.10;;
72464;SDS011;60471;52.150;4.508;2023-07-29T07:50:22;9.90;;;2.20;;
72464;SDS011;60471;52.150;4.508;2023-07-29T07:52:49;12.90;;;2.40;;
72464;SDS011;60471;52.150;4.508;2023-07-29T07:55:16;12.98;;;2.92;;
72464;SDS011;60471;52.150;4.508;2023-07-29T07:57:42;13.43;;;2.70;;
72464;SDS011;60471;52.150;4.508;2023-07-29T08:00:08;10.35;;;2.40;;
72464;SDS011;60471;52.150;4.508;2023-07-29T08:02:35;14.13;;;2.40;;
72464;SDS011;60471;52.150;4.508;2023-07-29T08:05:01;12.70;;;2.60;;
72464;SDS011;60471;52.150;4.508;2023-07-29T08:07:28;14.80;;;2.88;;
72464;SDS011;60471;52.150;4.508;2023-07-29T08:09:54;12.23;;;2.30;;
72464;SDS011;60471;52.150;4.508;2023-07-29T08:12:20;8.23;;;1.92;;
72464;SDS011;60471;52.150;4.508;2023-07-29T08:14:46;11.15;;;2.47;;
72464;SDS011;60471;52.150;4.508;2023-07-29T08:17:12;15.35;;;2.40;;
72464;SDS011;60471;52.150;4.508;2023-07-29T08:19:39;8.63;;;2.20;;
72464;SDS011;60471;52.150;4.508;2023-07-29T08:22:05;12.85;;;2.33;;
72464;SDS011;60471;52.150;4.508;2023-07-29T08:24:31;14.73;;;3.10;;
72464;SDS011;60471;52.150;4.508;2023-07-29T08:26:58;10.43;;;2.58;;
72464;SDS011;60471;52.150;4.508;2023-07-29T08:29:24;12.32;;;2.47;;
72464;SDS011;60471;52.150;4.508;2023-07-29T08:31:50;11.38;;;2.50;;
72464;SDS011;60471;52.150;4.508;2023-07-29T08:34:17;8.98;;;2.10;;
72464;SDS011;60471;52.150;4.508;2023-07-29T08:36:43;14.60;;;2.65;;
72464;SDS011;60471;52.150;4.508;2023-07-29T08:39:10;13.18;;;2.42;;
72464;SDS011;60471;52.150;4.508;2023-07-29T08:41:41;12.63;;;2.38;;
72464;SDS011;60471;52.150;4.508;2023-07-29T08:44:22;9.10;;;2.33;;
72464;SDS011;60471;52.150;4.508;2023-07-29T08:46:52;15.85;;;2.58;;
72464;SDS011;60471;52.150;4.508;2023-07-29T08:49:19;11.85;;;2.13;;
72464;SDS011;60471;52.150;4.508;2023-07-29T08:51:48;11.52;;;2.47;;
72464;SDS011;60471;52.150;4.508;2023-07-29T08:54:19;12.85;;;2.20;;
72464;SDS011;60471;52.150;4.508;2023-07-29T08:56:45;10.85;;;2.30;;
72464;SDS011;60471;52.150;4.508;2023-07-29T08:59:12;13.98;;;2.17;;
72464;SDS011;60471;52.150;4.508;2023-07-29T09:01:40;10.95;;;2.10;;
72464;SDS011;60471;52.150;4.508;2023-07-29T09:04:07;13.05;;;2.50;;
72464;SDS011;60471;52.150;4.508;2023-07-29T09:06:34;8.82;;;1.92;;
72464;SDS011;60471;52.150;4.508;2023-07-29T09:09:02;11.60;;;2.30;;
72464;SDS011;60471;52.150;4.508;2023-07-29T09:11:28;11.90;;;2.65;;
72464;SDS011;60471;52.150;4.508;2023-07-29T09:13:54;15.32;;;2.38;;
72464;SDS011;60471;52.150;4.508;2023-07-29T09:16:21;12.70;;;2.55;;
72464;SDS011;60471;52.150;4.508;2023-07-29T09:18:48;12.20;;;2.55;;
72464;SDS011;60471;52.150;4.508;2023-07-29T09:21:22;10.23;;;2.47;;
72464;SDS011;60471;52.150;4.508;2023-07-29T09:23:54;10.68;;;2.38;;
72464;SDS011;60471;52.150;4.508;2023-07-29T09:26:27;13.75;;;2.88;;
72464;SDS011;60471;52.150;4.508;2023-07-29T09:28:55;7.93;;;2.10;;
72464;SDS011;60471;52.150;4.508;2023-07-29T09:31:23;16.48;;;2.25;;
72464;SDS011;60471;52.150;4.508;2023-07-29T09:33:58;16.90;;;2.35;;
72464;SDS011;60471;52.150;4.508;2023-07-29T09:36:31;16.75;;;2.53;;
72464;SDS011;60471;52.150;4.508;2023-07-29T09:38:59;18.38;;;2.85;;
72464;SDS011;60471;52.150;4.508;2023-07-29T09:41:26;11.32;;;2.42;;
72464;SDS011;60471;52.150;4.508;2023-07-29T09:43:57;10.30;;;2.42;;
72464;SDS011;60471;52.150;4.508;2023-07-29T09:46:31;10.82;;;2.35;;
72464;SDS011;60471;52.150;4.508;2023-07-29T09:49:06;9.38;;;2.05;;
72464;SDS011;60471;52.150;4.508;2023-07-29T09:51:37;13.07;;;2.45;;
72464;SDS011;60471;52.150;4.508;2023-07-29T09:54:05;9.90;;;2.28;;
72464;SDS011;60471;52.150;4.508;2023-07-29T09:56:32;12.50;;;2.28;;
72464;SDS011;60471;52.150;4.508;2023-07-29T09:58:58;7.65;;;2.28;;
72464;SDS011;60471;52.150;4.508;2023-07-29T10:01:24;11.75;;;2.72;;
72464;SDS011;60471;52.150;4.508;2023-07-29T10:03:51;11.57;;;2.15;;
72464;SDS011;60471;52.150;4.508;2023-07-29T10:06:18;16.08;;;2.75;;
72464;SDS011;60471;52.150;4.508;2023-07-29T10:08:45;16.48;;;2.50;;
72464;SDS011;60471;52.150;4.508;2023-07-29T10:11:14;14.18;;;2.50;;
72464;SDS011;60471;52.150;4.508;2023-07-29T10:13:42;13.30;;;2.70;;
72464;SDS011;60471;52.150;4.508;2023-07-29T10:16:08;10.48;;;2.80;;
72464;SDS011;60471;52.150;4.508;2023-07-29T10:18:35;10.93;;;2.88;;
72464;SDS011;60471;52.150;4.508;2023-07-29T10:21:02;9.18;;;2.80;;
72464;SDS011;60471;52.150;4.508;2023-07-29T10:23:32;12.23;;;3.33;;
72464;SDS011;60471;52.150;4.508;2023-07-29T10:26:08;10.85;;;3.03;;
72464;SDS011;60471;52.150;4.508;2023-07-29T10:28:39;12.32;;;3.13;;
72464;SDS011;60471;52.150;4.508;2023-07-29T10:31:12;9.13;;;2.50;;
72464;SDS011;60471;52.150;4.508;2023-07-29T10:33:42;11.10;;;2.45;;
72464;SDS011;60471;52.150;4.508;2023-07-29T10:36:10;14.35;;;2.80;;
72464;SDS011;60471;52.150;4.508;2023-07-29T10:38:38;10.55;;;2.58;;
72464;SDS011;60471;52.150;4.508;2023-07-29T10:41:04;12.13;;;2.40;;
72464;SDS011;60471;52.150;4.508;2023-07-29T10:43:35;10.65;;;2.45;;
72464;SDS011;60471;52.150;4.508;2023-07-29T10:46:38;7.60;;;1.90;;
72464;SDS011;60471;52.150;4.508;2023-07-29T10:49:00;8.93;;;1.60;;
72464;SDS011;60471;52.150;4.508;2023-07-29T10:51:28;5.80;;;1.52;;
72464;SDS011;60471;52.150;4.508;2023-07-29T10:56:39;6.78;;;1.45;;
72464;SDS011;60471;52.150;4.508;2023-07-29T11:01:41;4.57;;;1.00;;
72464;SDS011;60471;52.150;4.508;2023-07-29T11:15:16;6.57;;;1.63;;
72464;SDS011;60471;52.150;4.508;2023-07-29T11:17:47;6.93;;;1.40;;
72464;SDS011;60471;52.150;4.508;2023-07-29T11:20:28;6.63;;;1.67;;
72464;SDS011;60471;52.150;4.508;2023-07-29T11:22:57;12.25;;;1.90;;
72464;SDS011;60471;52.150;4.508;2023-07-29T11:25:27;11.85;;;2.15;;
72464;SDS011;60471;52.150;4.508;2023-07-29T11:27:57;10.68;;;2.38;;
72464;SDS011;60471;52.150;4.508;2023-07-29T11:30:25;10.80;;;2.63;;
72464;SDS011;60471;52.150;4.508;2023-07-29T11:32:53;8.43;;;1.90;;
72464;SDS011;60471;52.150;4.508;2023-07-29T11:35:21;10.73;;;1.88;;
72464;SDS011;60471;52.150;4.508;2023-07-29T11:37:48;7.53;;;1.80;;
72464;SDS011;60471;52.150;4.508;2023-07-29T11:40:21;8.02;;;1.90;;
72464;SDS011;60471;52.150;4.508;2023-07-29T11:42:50;6.50;;;1.75;;
72464;SDS011;60471;52.150;4.508;2023-07-29T11:45:19;6.30;;;1.58;;
72464;SDS011;60471;52.150;4.508;2023-07-29T11:47:47;6.60;;;1.92;;
72464;SDS011;60471;52.150;4.508;2023-07-29T11:50:14;10.77;;;2.30;;
72464;SDS011;60471;52.150;4.508;2023-07-29T11:52:44;7.22;;;1.95;;
72464;SDS011;60471;52.150;4.508;2023-07-29T11:55:13;7.90;;;2.03;;
72464;SDS011;60471;52.150;4.508;2023-07-29T11:57:41;10.02;;;2.10;;
72464;SDS011;60471;52.150;4.508;2023-07-29T12:00:09;8.93;;;2.10;;
72464;SDS011;60471;52.150;4.508;2023-07-29T12:02:38;9.68;;;2.30;;
72464;SDS011;60471;52.150;4.508;2023-07-29T12:05:08;7.68;;;1.98;;
72464;SDS011;60471;52.150;4.508;2023-07-29T12:07:35;8.00;;;1.88;;
72464;SDS011;60471;52.150;4.508;2023-07-29T12:10:05;10.85;;;1.88;;
72464;SDS011;60471;52.150;4.508;2023-07-29T12:12:32;7.30;;;1.50;;
72464;SDS011;60471;52.150;4.508;2023-07-29T12:14:58;7.22;;;2.00;;
72464;SDS011;60471;52.150;4.508;2023-07-29T12:17:24;7.95;;;1.88;;
72464;SDS011;60471;52.150;4.508;2023-07-29T12:19:53;11.32;;;1.85;;
72464;SDS011;60471;52.150;4.508;2023-07-29T12:22:20;10.80;;;2.10;;
72464;SDS011;60471;52.150;4.508;2023-07-29T12:24:48;8.02;;;1.40;;
72464;SDS011;60471;52.150;4.508;2023-07-29T12:27:17;11.10;;;1.95;;
72464;SDS011;60471;52.150;4.508;2023-07-29T12:29:47;8.13;;;1.80;;
72464;SDS011;60471;52.150;4.508;2023-07-29T12:32:14;8.82;;;1.80;;
72464;SDS011;60471;52.150;4.508;2023-07-29T12:34:40;8.02;;;1.80;;
72464;SDS011;60471;52.150;4.508;2023-07-29T12:37:07;8.73;;;1.80;;
72464;SDS011;60471;52.150;4.508;2023-07-29T12:39:34;8.13;;;1.50;;
72464;SDS011;60471;52.150;4.508;2023-07-29T12:42:07;7.30;;;1.50;;
72464;SDS011;60471;52.150;4.508;2023-07-29T12:44:35;8.88;;;1.63;;
72464;SDS011;60471;52.150;4.508;2023-07-29T12:47:03;4.88;;;1.38;;
72464;SDS011;60471;52.150;4.508;2023-07-29T12:49:32;7.90;;;1.85;;
72464;SDS011;60471;52.150;4.508;2023-07-29T12:51:59;8.77;;;1.50;;
72464;SDS011;60471;52.150;4.508;2023-07-29T12:54:25;7.10;;;1.60;;
72464;SDS011;60471;52.150;4.508;2023-07-29T12:56:52;6.95;;;1.35;;
72464;SDS011;60471;52.150;4.508;2023-07-29T12:59:18;6.78;;;1.40;;
72464;SDS011;60471;52.150;4.508;2023-07-29T13:01:44;8.27;;;1.75;;
72464;SDS011;60471;52.150;4.508;2023-07-29T13:04:11;8.32;;;1.45;;
72464;SDS011;60471;52.150;4.508;2023-07-29T13:06:37;5.93;;;1.23;;
72464;SDS011;60471;52.150;4.508;2023-07-29T13:09:03;6.68;;;1.55;;
72464;SDS011;60471;52.150;4.508;2023-07-29T13:11:31;6.15;;;1.20;;
72464;SDS011;60471;52.150;4.508;2023-07-29T13:14:02;6.40;;;1.48;;
72464;SDS011;60471;52.150;4.508;2023-07-29T13:16:29;9.32;;;1.60;;
72464;SDS011;60471;52.150;4.508;2023-07-29T13:18:55;7.18;;;1.40;;
72464;SDS011;60471;52.150;4.508;2023-07-29T13:21:22;6.22;;;1.50;;
72464;SDS011;60471;52.150;4.508;2023-07-29T13:23:49;9.68;;;1.50;;
72464;SDS011;60471;52.150;4.508;2023-07-29T13:26:16;6.22;;;1.40;;
72464;SDS011;60471;52.150;4.508;2023-07-29T13:28:42;6.18;;;1.50;;
72464;SDS011;60471;52.150;4.508;2023-07-29T13:31:08;7.57;;;1.75;;
72464;SDS011;60471;52.150;4.508;2023-07-29T13:33:34;7.85;;;1.70;;
72464;SDS011;60471;52.150;4.508;2023-07-29T13:36:01;6.05;;;1.50;;
72464;SDS011;60471;52.150;4.508;2023-07-29T13:38:30;14.02;;;1.63;;
72464;SDS011;60471;52.150;4.508;2023-07-29T13:40:56;7.13;;;1.30;;
72464;SDS011;60471;52.150;4.508;2023-07-29T13:43:22;7.07;;;1.50;;
72464;SDS011;60471;52.150;4.508;2023-07-29T13:45:49;5.47;;;1.15;;
72464;SDS011;60471;52.150;4.508;2023-07-29T13:48:15;7.72;;;1.50;;
72464;SDS011;60471;52.150;4.508;2023-07-29T13:50:42;5.90;;;1.67;;
72464;SDS011;60471;52.150;4.508;2023-07-29T13:53:09;5.78;;;1.30;;
72464;SDS011;60471;52.150;4.508;2023-07-29T13:55:36;3.90;;;1.10;;
72464;SDS011;60471;52.150;4.508;2023-07-29T13:58:02;5.03;;;1.30;;
72464;SDS011;60471;52.150;4.508;2023-07-29T14:00:29;5.95;;;1.40;;
72464;SDS011;60471;52.150;4.508;2023-07-29T14:02:55;7.10;;;1.58;;
72464;SDS011;60471;52.150;4.508;2023-07-29T14:05:21;5.55;;;1.40;;
72464;SDS011;60471;52.150;4.508;2023-07-29T14:07:47;7.10;;;1.60;;
72464;SDS011;60471;52.150;4.508;2023-07-29T14:10:13;10.32;;;1.75;;
72464;SDS011;60471;52.150;4.508;2023-07-29T14:12:40;7.70;;;1.77;;
72464;SDS011;60471;52.150;4.508;2023-07-29T14:15:06;10.20;;;1.77;;
72464;SDS011;60471;52.150;4.508;2023-07-29T14:17:33;7.00;;;1.88;;
72464;SDS011;60471;52.150;4.508;2023-07-29T14:19:59;10.18;;;1.92;;
72464;SDS011;60471;52.150;4.508;2023-07-29T14:22:29;6.00;;;1.60;;
72464;SDS011;60471;52.150;4.508;2023-07-29T14:24:55;11.48;;;1.92;;
72464;SDS011;60471;52.150;4.508;2023-07-29T14:27:22;6.18;;;1.52;;
72464;SDS011;60471;52.150;4.508;2023-07-29T14:29:48;7.88;;;2.00;;
72464;SDS011;60471;52.150;4.508;2023-07-29T14:32:14;6.22;;;1.65;;
72464;SDS011;60471;52.150;4.508;2023-07-29T14:34:40;7.82;;;1.67;;
72464;SDS011;60471;52.150;4.508;2023-07-29T14:37:06;6.80;;;1.63;;
72464;SDS011;60471;52.150;4.508;2023-07-29T14:39:33;7.07;;;1.50;;
72464;SDS011;60471;52.150;4.508;2023-07-29T14:41:59;7.13;;;1.67;;
72464;SDS011;60471;52.150;4.508;2023-07-29T14:44:25;6.82;;;1.83;;
72464;SDS011;60471;52.150;4.508;2023-07-29T14:46:51;8.63;;;1.60;;
72464;SDS011;60471;52.150;4.508;2023-07-29T14:49:19;6.93;;;1.58;;
72464;SDS011;60471;52.150;4.508;2023-07-29T14:51:45;6.50;;;1.50;;
72464;SDS011;60471;52.150;4.508;2023-07-29T14:54:11;6.72;;;1.65;;
72464;SDS011;60471;52.150;4.508;2023-07-29T14:56:38;6.78;;;1.60;;
72464;SDS011;60471;52.150;4.508;2023-07-29T14:59:04;8.90;;;1.60;;
72464;SDS011;60471;52.150;4.508;2023-07-29T15:01:30;6.20;;;1.40;;